createdAt,value
2018-04-29T00:02:16.936Z,13.09
2018-04-29T00:04:44.601Z,13.06
2018-04-29T00:07:12.271Z,12.98
2018-04-29T00:09:39.945Z,12.94
2018-04-29T00:12:07.576Z,12.77
2018-04-29T00:14:35.257Z,12.76
2018-04-29T00:17:02.996Z,12.71
2018-04-29T00:19:30.673Z,12.65
2018-04-29T00:21:58.307Z,12.57
2018-04-29T00:24:26.000Z,12.57
2018-04-29T00:26:53.625Z,12.49
2018-04-29T00:29:21.363Z,12.46
2018-04-29T00:31:49.008Z,12.36
2018-04-29T00:34:16.724Z,12.09
2018-04-29T00:36:44.370Z,12.24
2018-04-29T00:39:12.079Z,12.20
2018-04-29T00:41:39.728Z,12.32
2018-04-29T00:44:07.360Z,12.19
2018-04-29T00:46:35.046Z,12.24
2018-04-29T00:49:02.685Z,12.34
2018-04-29T00:51:42.235Z,12.36
2018-04-29T00:54:09.934Z,11.87
2018-04-29T00:56:37.619Z,11.99
2018-04-29T00:59:05.240Z,12.14
2018-04-29T01:01:32.942Z,12.13
2018-04-29T01:04:00.621Z,12.13
2018-04-29T01:06:28.298Z,11.98
2018-04-29T01:08:55.940Z,11.82
2018-04-29T01:11:23.609Z,11.79
2018-04-29T01:13:51.237Z,11.85
2018-04-29T01:16:18.906Z,11.64
2018-04-29T01:18:46.534Z,11.66
2018-04-29T01:21:14.197Z,11.56
2018-04-29T01:23:41.833Z,11.54
2018-04-29T01:26:09.495Z,11.58
2018-04-29T01:28:37.122Z,11.71
2018-04-29T01:31:04.797Z,11.75
2018-04-29T01:33:32.438Z,11.72
2018-04-29T01:36:00.128Z,11.47
2018-04-29T01:38:27.765Z,11.41
2018-04-29T01:40:55.443Z,11.58
2018-04-29T01:43:23.092Z,11.70
2018-04-29T01:45:50.772Z,11.50
2018-04-29T01:48:18.426Z,11.33
2018-04-29T01:50:46.090Z,11.35
2018-04-29T01:53:13.765Z,11.34
2018-04-29T01:55:41.444Z,11.41
2018-04-29T01:58:09.073Z,11.43
2018-04-29T02:00:36.764Z,11.48
2018-04-29T02:03:04.388Z,11.48
2018-04-29T02:05:32.082Z,11.38
2018-04-29T02:07:59.726Z,11.35
2018-04-29T02:10:27.420Z,11.25
2018-04-29T02:12:55.075Z,11.20
2018-04-29T02:15:22.749Z,11.25
2018-04-29T02:17:50.378Z,11.28
2018-04-29T02:20:18.042Z,11.21
2018-04-29T02:22:45.665Z,10.92
2018-04-29T02:25:13.342Z,10.87
2018-04-29T02:27:40.967Z,10.83
2018-04-29T02:30:08.678Z,11.03
2018-04-29T02:32:36.309Z,11.03
2018-04-29T02:35:03.996Z,11.09
2018-04-29T02:37:31.633Z,11.13
2018-04-29T02:39:59.348Z,11.05
2018-04-29T02:42:26.977Z,10.87
2018-04-29T02:44:54.659Z,10.87
2018-04-29T02:47:22.326Z,10.90
2018-04-29T02:49:50.004Z,10.85
2018-04-29T02:52:17.644Z,10.92
2018-04-29T02:54:45.351Z,10.93
2018-04-29T02:57:12.986Z,10.97
2018-04-29T02:59:40.637Z,10.99
2018-04-29T03:02:08.321Z,11.03
2018-04-29T03:04:35.969Z,11.04
2018-04-29T03:07:03.660Z,11.08
2018-04-29T03:09:31.296Z,11.02
2018-04-29T03:11:59.002Z,10.99
2018-04-29T03:14:26.645Z,10.96
2018-04-29T03:16:54.317Z,10.91
2018-04-29T03:19:21.944Z,10.79
2018-04-29T03:21:49.632Z,10.54
2018-04-29T03:24:17.272Z,10.57
2018-04-29T03:26:44.957Z,10.66
2018-04-29T03:29:12.582Z,10.77
2018-04-29T03:31:40.245Z,10.77
2018-04-29T03:34:07.887Z,10.74
2018-04-29T03:36:35.584Z,10.75
2018-04-29T03:39:03.258Z,10.64
2018-04-29T03:41:30.968Z,10.59
2018-04-29T03:43:58.602Z,10.58
2018-04-29T03:46:26.269Z,10.69
2018-04-29T03:48:53.925Z,10.59
2018-04-29T03:51:21.627Z,10.70
2018-04-29T03:53:49.263Z,10.69
2018-04-29T03:56:16.930Z,10.70
2018-04-29T03:58:57.597Z,10.67
2018-04-29T04:01:37.088Z,10.72
2018-04-29T04:04:04.960Z,10.80
2018-04-29T04:06:32.679Z,10.81
2018-04-29T04:09:00.676Z,10.70
2018-04-29T04:11:28.368Z,10.61
2018-04-29T04:13:56.014Z,10.67
2018-04-29T04:16:23.725Z,10.73
2018-04-29T04:18:51.361Z,10.82
2018-04-29T04:21:19.091Z,10.88
2018-04-29T04:23:46.765Z,10.97
2018-04-29T04:26:15.916Z,11.08
2018-04-29T04:28:43.589Z,11.15
2018-04-29T04:31:11.350Z,11.24
2018-04-29T04:33:39.490Z,11.43
2018-04-29T04:36:07.225Z,11.38
2018-04-29T04:38:34.867Z,11.41
2018-04-29T04:41:02.601Z,11.74
2018-04-29T04:43:30.438Z,11.85
2018-04-29T04:45:58.502Z,11.90
2018-04-29T04:48:27.018Z,12.09
2018-04-29T04:50:54.694Z,12.33
2018-04-29T04:53:25.752Z,12.24
2018-04-29T04:55:53.497Z,12.39
2018-04-29T04:58:21.167Z,12.13
2018-04-29T05:00:48.861Z,12.17
2018-04-29T05:03:16.612Z,12.19
2018-04-29T05:05:46.669Z,12.15
2018-04-29T05:08:18.009Z,11.88
2018-04-29T05:10:45.747Z,11.93
2018-04-29T05:13:14.152Z,12.03
2018-04-29T05:15:42.605Z,11.62
2018-04-29T05:18:10.254Z,11.03
2018-04-29T05:20:37.964Z,10.84
2018-04-29T05:23:05.627Z,10.26
2018-04-29T05:25:33.309Z,10.09
2018-04-29T05:28:01.083Z,10.44
2018-04-29T05:30:29.990Z,10.83
2018-04-29T05:32:57.626Z,11.08
2018-04-29T05:35:25.301Z,11.26
2018-04-29T05:37:53.001Z,11.53
2018-04-29T05:40:26.872Z,11.43
2018-04-29T05:42:55.764Z,11.28
2018-04-29T05:45:23.480Z,11.48
2018-04-29T05:47:51.174Z,11.34
2018-04-29T05:50:19.601Z,11.24
2018-04-29T05:52:47.359Z,11.45
2018-04-29T05:55:15.409Z,11.60
2018-04-29T05:57:43.151Z,11.83
2018-04-29T06:00:10.828Z,12.03
2018-04-29T06:02:38.557Z,12.15
2018-04-29T06:05:08.293Z,12.33
2018-04-29T06:07:36.089Z,12.52
2018-04-29T06:10:05.786Z,12.73
2018-04-29T06:12:34.037Z,13.22
2018-04-29T06:15:01.684Z,13.71
2018-04-29T06:17:29.370Z,14.40
2018-04-29T06:19:57.006Z,14.81
2018-04-29T06:22:24.726Z,15.79
2018-04-29T06:24:52.414Z,16.33
2018-04-29T06:27:20.134Z,15.85
2018-04-29T06:29:47.762Z,16.16
2018-04-29T06:32:15.493Z,15.45
2018-04-29T06:34:43.146Z,15.77
2018-04-29T06:37:10.853Z,15.72
2018-04-29T06:39:38.489Z,17.29
2018-04-29T06:42:06.170Z,18.03
2018-04-29T06:44:33.810Z,16.32
2018-04-29T06:47:01.482Z,15.03
2018-04-29T06:49:29.168Z,15.10
2018-04-29T06:51:56.864Z,13.80
2018-04-29T06:54:24.499Z,14.22
2018-04-29T06:56:52.184Z,14.79
2018-04-29T06:59:19.849Z,15.13
2018-04-29T07:01:47.529Z,14.91
2018-04-29T07:04:15.870Z,14.25
2018-04-29T07:06:47.652Z,15.03
2018-04-29T07:09:15.287Z,15.33
2018-04-29T07:11:43.392Z,15.66
2018-04-29T07:14:13.188Z,15.99
2018-04-29T07:16:43.044Z,15.94
2018-04-29T07:19:10.961Z,16.03
2018-04-29T07:21:42.043Z,16.90
2018-04-29T07:24:13.403Z,16.40
2018-04-29T07:26:43.917Z,16.17
2018-04-29T07:29:11.576Z,16.61
2018-04-29T07:31:39.269Z,17.83
2018-04-29T07:34:06.957Z,18.80
2018-04-29T07:36:34.781Z,19.25
2018-04-29T07:39:02.477Z,19.03
2018-04-29T07:41:30.171Z,17.49
2018-04-29T07:43:58.031Z,17.51
2018-04-29T07:46:30.370Z,16.33
2018-04-29T07:48:58.518Z,15.58
2018-04-29T07:51:26.192Z,16.26
2018-04-29T07:53:53.877Z,16.68
2018-04-29T07:56:21.559Z,16.98
2018-04-29T07:58:49.281Z,16.86
2018-04-29T08:01:16.996Z,16.62
2018-04-29T08:03:44.659Z,16.15
2018-04-29T08:06:13.243Z,16.86
2018-04-29T08:08:40.917Z,17.92
2018-04-29T08:11:08.618Z,17.27
2018-04-29T08:13:36.622Z,17.34
2018-04-29T08:16:07.970Z,16.36
2018-04-29T08:18:36.071Z,15.29
2018-04-29T08:21:03.812Z,14.98
2018-04-29T08:23:31.521Z,14.47
2018-04-29T08:26:01.547Z,14.68
2018-04-29T08:28:29.466Z,15.31
2018-04-29T08:30:57.420Z,15.48
2018-04-29T08:33:28.376Z,17.78
2018-04-29T08:35:56.257Z,19.12
2018-04-29T08:38:23.991Z,17.90
2018-04-29T08:40:51.686Z,19.23
2018-04-29T08:43:19.457Z,18.20
2018-04-29T08:45:49.428Z,18.45
2018-04-29T08:48:20.532Z,18.56
2018-04-29T08:50:51.687Z,18.49
2018-04-29T08:53:24.812Z,18.02
2018-04-29T08:55:55.463Z,18.65
2018-04-29T08:58:26.479Z,19.54
2018-04-29T09:00:54.354Z,19.54
2018-04-29T09:03:22.090Z,17.95
2018-04-29T09:05:52.290Z,18.16
2018-04-29T09:08:22.579Z,18.97
2018-04-29T09:10:53.696Z,20.87
2018-04-29T09:13:24.606Z,19.99
2018-04-29T09:15:59.145Z,19.89
2018-04-29T09:18:29.828Z,19.55
2018-04-29T09:20:57.472Z,18.94
2018-04-29T09:23:25.157Z,19.35
2018-04-29T09:25:54.348Z,20.49
2018-04-29T09:28:24.636Z,20.89
2018-04-29T09:30:54.686Z,20.86
2018-04-29T09:33:25.790Z,20.21
2018-04-29T09:35:56.928Z,20.23
2018-04-29T09:38:30.315Z,20.61
2018-04-29T09:40:58.180Z,20.63
2018-04-29T09:43:26.111Z,21.00
2018-04-29T09:45:56.729Z,20.87
2018-04-29T09:48:27.009Z,20.49
2018-04-29T09:50:56.910Z,19.71
2018-04-29T09:53:31.885Z,19.99
2018-04-29T09:56:04.592Z,20.15
2018-04-29T09:58:39.882Z,21.45
2018-04-29T10:01:13.024Z,21.48
2018-04-29T10:03:41.250Z,21.02
2018-04-29T10:06:09.079Z,20.65
2018-04-29T10:08:37.809Z,21.30
2018-04-29T10:11:07.316Z,21.95
2018-04-29T10:13:35.180Z,21.57
2018-04-29T10:16:02.999Z,21.23
2018-04-29T10:18:30.768Z,21.76
2018-04-29T10:20:58.581Z,20.96
2018-04-29T10:23:26.450Z,20.78
2018-04-29T10:25:54.101Z,22.32
2018-04-29T10:28:21.783Z,21.31
2018-04-29T10:30:49.425Z,21.05
2018-04-29T10:33:17.110Z,20.15
2018-04-29T10:35:44.769Z,20.74
2018-04-29T10:38:12.458Z,19.46
2018-04-29T10:40:40.121Z,19.45
2018-04-29T10:43:07.828Z,19.47
2018-04-29T10:45:35.499Z,20.33
2018-04-29T10:48:03.223Z,20.60
2018-04-29T10:50:30.962Z,20.73
2018-04-29T10:52:58.678Z,20.29
2018-04-29T10:55:26.388Z,19.99
2018-04-29T10:57:54.161Z,20.26
2018-04-29T11:00:21.829Z,20.24
2018-04-29T11:02:49.551Z,20.47
2018-04-29T11:05:17.229Z,20.55
2018-04-29T11:07:44.994Z,20.69
2018-04-29T11:10:12.737Z,21.60
2018-04-29T11:12:40.459Z,21.01
2018-04-29T11:15:08.175Z,21.13
2018-04-29T11:17:35.902Z,21.52
2018-04-29T11:20:03.559Z,21.60
2018-04-29T11:22:31.318Z,21.88
2018-04-29T11:24:59.049Z,22.08
2018-04-29T11:27:26.729Z,21.70
2018-04-29T11:29:54.378Z,21.20
2018-04-29T11:32:22.080Z,21.75
2018-04-29T11:34:49.764Z,23.45
2018-04-29T11:37:17.467Z,21.98
2018-04-29T11:39:45.167Z,22.08
2018-04-29T11:42:12.875Z,21.83
2018-04-29T11:44:40.547Z,21.59
2018-04-29T11:47:08.267Z,22.64
2018-04-29T11:49:35.923Z,22.15
2018-04-29T11:52:03.631Z,22.97
2018-04-29T11:54:31.287Z,23.65
2018-04-29T11:56:58.974Z,22.68
2018-04-29T11:59:26.700Z,22.93
2018-04-29T12:01:54.458Z,23.80
2018-04-29T12:04:22.147Z,23.55
2018-04-29T12:06:49.815Z,23.62
2018-04-29T12:09:17.513Z,23.06
2018-04-29T12:11:45.187Z,23.29
2018-04-29T12:14:12.928Z,23.34
2018-04-29T12:16:40.569Z,24.03
2018-04-29T12:19:08.376Z,23.22
2018-04-29T12:21:36.058Z,24.66
2018-04-29T12:24:03.748Z,25.24
2018-04-29T12:26:31.403Z,24.54
2018-04-29T12:28:59.103Z,23.42
2018-04-29T12:31:26.770Z,23.58
2018-04-29T12:33:54.535Z,25.49
2018-04-29T12:36:22.187Z,23.64
2018-04-29T12:38:49.886Z,23.84
2018-04-29T12:41:17.546Z,24.17
2018-04-29T12:43:45.221Z,23.93
2018-04-29T12:46:12.875Z,24.26
2018-04-29T12:48:40.579Z,24.18
2018-04-29T12:51:08.221Z,23.14
2018-04-29T12:53:35.914Z,24.02
2018-04-29T12:56:03.550Z,25.54
2018-04-29T12:58:33.322Z,24.78
2018-04-29T13:01:01.312Z,23.89
2018-04-29T13:03:32.962Z,23.67
2018-04-29T13:06:00.676Z,23.69
2018-04-29T13:08:31.313Z,25.45
2018-04-29T13:10:59.591Z,23.54
2018-04-29T13:13:27.294Z,23.68
2018-04-29T13:15:54.937Z,24.01
2018-04-29T13:18:22.627Z,24.08
2018-04-29T13:20:52.404Z,24.26
2018-04-29T13:23:23.537Z,24.53
2018-04-29T13:25:52.416Z,23.85
2018-04-29T13:28:20.128Z,24.98
2018-04-29T13:30:47.759Z,23.60
2018-04-29T13:33:15.459Z,23.63
2018-04-29T13:35:43.137Z,23.57
2018-04-29T13:38:15.022Z,23.51
2018-04-29T13:40:46.282Z,23.69
2018-04-29T13:43:18.049Z,23.63
2018-04-29T13:45:45.777Z,23.48
2018-04-29T13:48:13.515Z,24.02
2018-04-29T13:50:42.850Z,23.80
2018-04-29T13:53:10.606Z,23.67
2018-04-29T13:55:39.628Z,23.33
2018-04-29T13:58:10.767Z,23.50
2018-04-29T14:00:38.603Z,23.57
2018-04-29T14:03:06.587Z,23.91
2018-04-29T14:05:35.613Z,23.73
2018-04-29T14:08:03.779Z,23.71
2018-04-29T14:10:31.506Z,23.77
2018-04-29T14:12:59.209Z,23.30
2018-04-29T14:15:26.876Z,23.06
2018-04-29T14:17:54.608Z,22.87
2018-04-29T14:20:22.267Z,23.02
2018-04-29T14:22:50.025Z,23.17
2018-04-29T14:25:17.679Z,22.96
2018-04-29T14:27:45.360Z,23.02
2018-04-29T14:30:13.019Z,23.14
2018-04-29T14:32:40.803Z,23.39
2018-04-29T14:35:09.362Z,23.20
2018-04-29T14:37:37.005Z,22.99
2018-04-29T14:40:04.702Z,22.96
2018-04-29T14:42:33.420Z,23.05
2018-04-29T14:45:01.104Z,23.28
2018-04-29T14:47:28.767Z,23.40
2018-04-29T14:49:56.469Z,23.34
2018-04-29T14:52:24.144Z,23.22
2018-04-29T14:54:51.829Z,23.07
2018-04-29T14:57:19.471Z,23.30
2018-04-29T14:59:47.154Z,23.38
2018-04-29T15:02:17.405Z,23.37
2018-04-29T15:04:45.130Z,23.36
2018-04-29T15:07:12.764Z,23.67
2018-04-29T15:09:41.000Z,23.56
2018-04-29T15:12:11.030Z,23.99
2018-04-29T15:14:38.717Z,23.86
2018-04-29T15:17:06.531Z,24.24
2018-04-29T15:19:46.306Z,24.13
2018-04-29T15:22:13.955Z,24.71
2018-04-29T15:24:41.647Z,24.33
2018-04-29T15:27:09.353Z,24.37
2018-04-29T15:29:37.043Z,25.03
2018-04-29T15:32:07.816Z,24.25
2018-04-29T15:34:37.499Z,24.11
2018-04-29T15:37:06.770Z,24.22
2018-04-29T15:39:34.738Z,24.49
2018-04-29T15:42:02.429Z,24.71
2018-04-29T15:44:30.331Z,24.99
2018-04-29T15:47:00.900Z,25.64
2018-04-29T15:49:28.589Z,25.81
2018-04-29T15:51:59.817Z,25.62
2018-04-29T15:54:30.743Z,24.95
2018-04-29T15:56:58.381Z,24.99
2018-04-29T15:59:30.075Z,24.79
2018-04-29T16:02:01.929Z,25.43
2018-04-29T16:04:33.493Z,25.48
2018-04-29T16:07:04.200Z,24.90
2018-04-29T16:09:35.472Z,24.85
2018-04-29T16:12:05.616Z,24.88
2018-04-29T16:14:36.244Z,24.91
2018-04-29T16:17:11.444Z,24.93
2018-04-29T16:19:47.473Z,24.65
2018-04-29T16:22:23.454Z,24.71
2018-04-29T16:24:59.965Z,24.38
2018-04-29T17:50:59.336Z,23.38
2018-04-29T17:53:26.996Z,23.41
2018-04-29T17:55:54.662Z,23.36
2018-04-29T17:58:22.269Z,23.37
2018-04-29T18:00:49.945Z,23.40
2018-04-29T18:03:17.578Z,23.33
2018-04-29T18:05:45.248Z,23.30
2018-04-29T18:08:12.875Z,23.29
2018-04-29T18:10:40.527Z,23.22
2018-04-29T18:13:08.227Z,23.15
2018-04-29T18:15:35.888Z,23.12
2018-04-29T18:18:03.556Z,23.11
2018-04-29T18:20:31.253Z,23.07
2018-04-29T18:22:58.867Z,22.96
2018-04-29T18:25:26.539Z,22.89
2018-04-29T18:27:54.197Z,22.96
2018-04-29T18:30:21.903Z,22.92
2018-04-29T18:32:49.547Z,22.81
2018-04-29T18:35:17.194Z,22.80
2018-04-29T18:37:44.854Z,22.87
2018-04-29T18:40:12.517Z,22.73
2018-04-29T18:42:40.124Z,22.61
2018-04-29T18:45:07.783Z,22.56
2018-04-29T18:47:35.459Z,22.62
2018-04-29T18:50:03.202Z,22.73
2018-04-29T18:52:30.863Z,22.73
2018-04-29T18:54:58.583Z,22.52
2018-04-29T18:57:26.190Z,22.59
2018-04-29T18:59:53.941Z,22.54
2018-04-29T19:02:21.572Z,22.56
2018-04-29T19:04:49.255Z,22.47
2018-04-29T19:07:16.871Z,22.22
2018-04-29T19:09:44.536Z,22.22
2018-04-29T19:12:12.152Z,22.33
2018-04-29T19:14:39.799Z,22.34
2018-04-29T19:17:07.465Z,22.40
2018-04-29T19:19:35.123Z,22.35
2018-04-29T19:22:02.763Z,22.21
2018-04-29T19:24:30.471Z,22.22
2018-04-29T19:26:58.070Z,22.11
2018-04-29T19:29:25.739Z,21.92
2018-04-29T19:31:53.409Z,22.07
2018-04-29T19:34:21.074Z,22.02
2018-04-29T19:36:48.692Z,22.07
2018-04-29T19:39:16.368Z,22.01
2018-04-29T19:41:43.983Z,21.87
2018-04-29T19:44:11.636Z,21.70
2018-04-29T19:46:39.253Z,21.72
2018-04-29T19:49:06.913Z,21.82
2018-04-29T19:51:34.556Z,21.29
2018-04-29T19:54:02.232Z,21.43
2018-04-29T19:56:29.856Z,21.41
2018-04-29T19:58:57.523Z,21.42
2018-04-29T20:01:25.171Z,21.47
2018-04-29T20:03:52.813Z,21.50
2018-04-29T20:06:20.466Z,21.52
2018-04-29T20:08:48.095Z,21.39
2018-04-29T20:11:15.757Z,21.31
2018-04-29T20:13:43.408Z,21.35
2018-04-29T20:16:11.050Z,21.41
2018-04-29T20:18:38.666Z,21.12
2018-04-29T20:21:06.325Z,21.21
2018-04-29T20:23:33.943Z,21.33
2018-04-29T20:26:01.642Z,21.38
2018-04-29T20:28:29.267Z,21.37
2018-04-29T20:30:56.939Z,21.20
2018-04-29T20:33:24.581Z,21.17
2018-04-29T20:35:52.237Z,21.21
2018-04-29T20:38:19.857Z,21.22
2018-04-29T20:40:47.572Z,21.32
2018-04-29T20:43:15.248Z,21.33
2018-04-29T20:45:42.907Z,21.29
2018-04-29T20:48:10.515Z,21.33
2018-04-29T20:50:38.174Z,21.41
2018-04-29T20:53:05.787Z,21.42
2018-04-29T20:55:33.477Z,21.36
2018-04-29T20:58:01.175Z,21.08
2018-04-29T21:00:28.834Z,20.80
2018-04-29T21:02:56.467Z,20.62
2018-04-29T21:05:24.135Z,20.50
2018-04-29T21:07:51.820Z,20.61
2018-04-29T21:10:19.519Z,20.70
2018-04-29T21:12:47.143Z,20.93
2018-04-29T21:15:14.803Z,20.65
2018-04-29T21:17:42.420Z,20.66
2018-04-29T21:20:10.118Z,20.73
2018-04-29T21:22:37.790Z,20.84
2018-04-29T21:25:06.353Z,20.97
2018-04-29T21:27:33.981Z,21.19
2018-04-29T21:30:01.627Z,21.14
2018-04-29T21:32:29.238Z,21.20
2018-04-29T21:34:56.908Z,21.01
2018-04-29T21:37:24.558Z,20.96
2018-04-29T21:39:52.224Z,21.19
2018-04-29T21:42:19.840Z,21.28
2018-04-29T21:44:47.522Z,21.29
2018-04-29T21:47:15.143Z,21.25
2018-04-29T21:49:42.831Z,21.19
2018-04-29T21:52:10.456Z,21.05
2018-04-29T21:54:38.157Z,21.03
2018-04-29T21:57:05.775Z,21.10
2018-04-29T21:59:33.440Z,21.15
2018-04-29T22:02:01.053Z,21.15
2018-04-29T22:04:28.716Z,21.13
2018-04-29T22:06:56.323Z,21.10
2018-04-29T22:09:23.967Z,21.19
2018-04-29T22:11:51.631Z,21.02
2018-04-29T22:14:19.250Z,20.87
2018-04-29T22:16:46.935Z,20.91
2018-04-29T22:19:14.561Z,20.86
2018-04-29T22:21:42.322Z,20.90
2018-04-29T22:24:09.967Z,20.76
2018-04-29T22:26:37.616Z,20.75
2018-04-29T22:29:05.226Z,20.78
2018-04-29T22:31:32.892Z,20.81
2018-04-29T22:34:00.521Z,20.78
2018-04-29T22:36:28.178Z,20.79
2018-04-29T22:38:55.784Z,20.76
2018-04-29T22:41:23.440Z,20.71
2018-04-29T22:43:51.127Z,20.58
2018-04-29T22:46:18.785Z,20.55
2018-04-29T22:48:46.403Z,20.48
2018-04-29T22:51:14.058Z,20.52
2018-04-29T22:53:41.687Z,20.24
2018-04-29T22:56:09.335Z,20.12
2018-04-29T22:58:36.986Z,19.98
2018-04-29T23:01:04.680Z,20.09
2018-04-29T23:03:32.287Z,20.18
2018-04-29T23:05:59.941Z,20.05
2018-04-29T23:08:27.551Z,19.97
2018-04-29T23:10:55.233Z,20.01
2018-04-29T23:13:22.850Z,20.00
2018-04-29T23:15:50.510Z,19.89
2018-04-29T23:18:18.126Z,19.93
2018-04-29T23:20:45.809Z,19.91
2018-04-29T23:23:13.479Z,20.10
2018-04-29T23:25:41.198Z,20.04
2018-04-29T23:28:08.808Z,20.15
2018-04-29T23:30:36.468Z,19.60
2018-04-29T23:33:04.083Z,19.69
2018-04-29T23:35:31.733Z,19.60
2018-04-29T23:37:59.406Z,19.46
2018-04-29T23:40:27.062Z,19.48
2018-04-29T23:42:54.720Z,19.39
2018-04-29T23:45:22.399Z,19.30
2018-04-29T23:47:50.035Z,19.29
2018-04-29T23:50:17.692Z,19.30
2018-04-29T23:52:45.304Z,19.24
2018-04-29T23:55:12.988Z,19.20
2018-04-29T23:57:40.603Z,19.05
